sensor_id;sensor_type;location;lat;lon;timestamp;P1;durP1;ratioP1;P2;durP2;ratioP2
15635;SDS011;7917;50.818;6.972;2023-02-15T00:02:24;50.85;;;24.25;;
15635;SDS011;7917;50.818;6.972;2023-02-15T00:04:51;48.83;;;25.25;;
15635;SDS011;7917;50.818;6.972;2023-02-15T00:07:18;49.40;;;24.27;;
15635;SDS011;7917;50.818;6.972;2023-02-15T00:09:45;48.40;;;24.00;;
15635;SDS011;7917;50.818;6.972;2023-02-15T00:12:13;45.72;;;23.75;;
15635;SDS011;7917;50.818;6.972;2023-02-15T00:14:40;49.67;;;24.95;;
15635;SDS011;7917;50.818;6.972;2023-02-15T00:17:08;54.10;;;24.88;;
15635;SDS011;7917;50.818;6.972;2023-02-15T00:19:35;48.45;;;23.70;;
15635;SDS011;7917;50.818;6.972;2023-02-15T00:22:02;46.63;;;23.95;;
15635;SDS011;7917;50.818;6.972;2023-02-15T00:24:28;48.40;;;24.63;;
15635;SDS011;7917;50.818;6.972;2023-02-15T00:26:55;53.35;;;25.90;;
15635;SDS011;7917;50.818;6.972;2023-02-15T00:29:22;50.53;;;24.73;;
15635;SDS011;7917;50.818;6.972;2023-02-15T00:31:48;47.75;;;24.23;;
15635;SDS011;7917;50.818;6.972;2023-02-15T00:34:18;50.70;;;25.35;;
15635;SDS011;7917;50.818;6.972;2023-02-15T00:36:46;50.95;;;24.20;;
15635;SDS011;7917;50.818;6.972;2023-02-15T00:39:13;52.10;;;24.13;;
15635;SDS011;7917;50.818;6.972;2023-02-15T00:41:41;50.75;;;24.50;;
15635;SDS011;7917;50.818;6.972;2023-02-15T00:44:11;51.40;;;24.27;;
15635;SDS011;7917;50.818;6.972;2023-02-15T00:46:39;50.03;;;24.60;;
15635;SDS011;7917;50.818;6.972;2023-02-15T00:49:06;51.38;;;24.40;;
15635;SDS011;7917;50.818;6.972;2023-02-15T00:51:33;53.58;;;24.65;;
15635;SDS011;7917;50.818;6.972;2023-02-15T00:54:00;51.97;;;25.95;;
15635;SDS011;7917;50.818;6.972;2023-02-15T00:56:27;54.30;;;26.65;;
15635;SDS011;7917;50.818;6.972;2023-02-15T00:58:56;53.60;;;25.80;;
15635;SDS011;7917;50.818;6.972;2023-02-15T01:01:23;54.58;;;26.73;;
15635;SDS011;7917;50.818;6.972;2023-02-15T01:03:51;54.03;;;25.48;;
15635;SDS011;7917;50.818;6.972;2023-02-15T01:06:17;50.70;;;25.02;;
15635;SDS011;7917;50.818;6.972;2023-02-15T01:08:45;59.63;;;26.20;;
15635;SDS011;7917;50.818;6.972;2023-02-15T01:11:13;49.88;;;25.13;;
15635;SDS011;7917;50.818;6.972;2023-02-15T01:13:46;54.63;;;26.50;;
15635;SDS011;7917;50.818;6.972;2023-02-15T01:16:13;55.42;;;25.70;;
15635;SDS011;7917;50.818;6.972;2023-02-15T01:18:40;51.35;;;24.20;;
15635;SDS011;7917;50.818;6.972;2023-02-15T01:21:11;55.08;;;25.33;;
15635;SDS011;7917;50.818;6.972;2023-02-15T01:23:39;57.85;;;26.42;;
15635;SDS011;7917;50.818;6.972;2023-02-15T01:26:07;56.92;;;25.80;;
15635;SDS011;7917;50.818;6.972;2023-02-15T01:28:34;52.40;;;23.95;;
15635;SDS011;7917;50.818;6.972;2023-02-15T01:31:04;50.97;;;24.48;;
15635;SDS011;7917;50.818;6.972;2023-02-15T01:33:32;52.97;;;25.63;;
15635;SDS011;7917;50.818;6.972;2023-02-15T01:35:59;54.45;;;25.17;;
15635;SDS011;7917;50.818;6.972;2023-02-15T01:41:48;55.35;;;25.15;;
15635;SDS011;7917;50.818;6.972;2023-02-15T01:47:16;53.80;;;24.23;;
15635;SDS011;7917;50.818;6.972;2023-02-15T01:49:48;55.97;;;25.80;;
15635;SDS011;7917;50.818;6.972;2023-02-15T01:52:22;52.92;;;25.27;;
15635;SDS011;7917;50.818;6.972;2023-02-15T01:54:48;54.15;;;25.77;;
15635;SDS011;7917;50.818;6.972;2023-02-15T01:57:17;53.13;;;26.38;;
15635;SDS011;7917;50.818;6.972;2023-02-15T01:59:51;58.13;;;26.02;;
15635;SDS011;7917;50.818;6.972;2023-02-15T02:02:21;56.33;;;25.52;;
15635;SDS011;7917;50.818;6.972;2023-02-15T02:04:50;55.83;;;25.58;;
15635;SDS011;7917;50.818;6.972;2023-02-15T02:07:19;57.60;;;25.52;;
15635;SDS011;7917;50.818;6.972;2023-02-15T02:09:46;55.72;;;25.48;;
15635;SDS011;7917;50.818;6.972;2023-02-15T02:12:14;62.35;;;27.55;;
15635;SDS011;7917;50.818;6.972;2023-02-15T02:14:44;53.38;;;25.58;;
15635;SDS011;7917;50.818;6.972;2023-02-15T02:17:12;55.78;;;27.65;;
15635;SDS011;7917;50.818;6.972;2023-02-15T02:20:08;54.53;;;24.92;;
15635;SDS011;7917;50.818;6.972;2023-02-15T02:23:11;51.42;;;24.67;;
15635;SDS011;7917;50.818;6.972;2023-02-15T02:28:54;52.47;;;24.77;;
15635;SDS011;7917;50.818;6.972;2023-02-15T02:32:01;51.28;;;24.55;;
15635;SDS011;7917;50.818;6.972;2023-02-15T02:34:55;61.22;;;26.20;;
15635;SDS011;7917;50.818;6.972;2023-02-15T02:37:28;58.70;;;25.88;;
15635;SDS011;7917;50.818;6.972;2023-02-15T02:40:02;55.88;;;25.25;;
15635;SDS011;7917;50.818;6.972;2023-02-15T02:42:38;54.78;;;24.48;;
15635;SDS011;7917;50.818;6.972;2023-02-15T02:45:07;52.45;;;25.23;;
15635;SDS011;7917;50.818;6.972;2023-02-15T02:47:38;57.58;;;25.73;;
15635;SDS011;7917;50.818;6.972;2023-02-15T02:50:12;51.72;;;23.85;;
15635;SDS011;7917;50.818;6.972;2023-02-15T02:52:41;50.63;;;22.88;;
15635;SDS011;7917;50.818;6.972;2023-02-15T02:55:10;48.63;;;23.85;;
15635;SDS011;7917;50.818;6.972;2023-02-15T02:57:40;58.70;;;23.63;;
15635;SDS011;7917;50.818;6.972;2023-02-15T03:02:41;53.13;;;24.33;;
15635;SDS011;7917;50.818;6.972;2023-02-15T03:05:12;46.38;;;22.98;;
15635;SDS011;7917;50.818;6.972;2023-02-15T03:07:43;53.55;;;23.33;;
15635;SDS011;7917;50.818;6.972;2023-02-15T03:10:15;48.42;;;23.27;;
15635;SDS011;7917;50.818;6.972;2023-02-15T03:12:46;49.80;;;23.30;;
15635;SDS011;7917;50.818;6.972;2023-02-15T03:15:16;54.97;;;25.85;;
15635;SDS011;7917;50.818;6.972;2023-02-15T03:17:55;52.33;;;24.77;;
15635;SDS011;7917;50.818;6.972;2023-02-15T03:20:30;61.35;;;25.33;;
15635;SDS011;7917;50.818;6.972;2023-02-15T03:23:02;55.33;;;24.38;;
15635;SDS011;7917;50.818;6.972;2023-02-15T03:28:05;56.05;;;23.52;;
15635;SDS011;7917;50.818;6.972;2023-02-15T03:30:43;53.08;;;25.08;;
15635;SDS011;7917;50.818;6.972;2023-02-15T03:33:14;51.15;;;23.60;;
15635;SDS011;7917;50.818;6.972;2023-02-15T03:35:46;54.38;;;25.17;;
15635;SDS011;7917;50.818;6.972;2023-02-15T03:38:20;55.95;;;25.35;;
15635;SDS011;7917;50.818;6.972;2023-02-15T03:40:51;50.40;;;23.30;;
15635;SDS011;7917;50.818;6.972;2023-02-15T03:43:38;53.60;;;24.48;;
15635;SDS011;7917;50.818;6.972;2023-02-15T03:46:12;55.45;;;26.33;;
15635;SDS011;7917;50.818;6.972;2023-02-15T03:48:45;53.22;;;24.17;;
15635;SDS011;7917;50.818;6.972;2023-02-15T03:51:17;51.88;;;22.58;;
15635;SDS011;7917;50.818;6.972;2023-02-15T03:54:00;56.25;;;23.83;;
15635;SDS011;7917;50.818;6.972;2023-02-15T03:56:29;51.60;;;24.30;;
15635;SDS011;7917;50.818;6.972;2023-02-15T03:58:56;61.75;;;24.83;;
15635;SDS011;7917;50.818;6.972;2023-02-15T04:01:43;54.88;;;24.92;;
15635;SDS011;7917;50.818;6.972;2023-02-15T04:04:25;59.83;;;25.60;;
15635;SDS011;7917;50.818;6.972;2023-02-15T04:06:57;56.28;;;24.58;;
15635;SDS011;7917;50.818;6.972;2023-02-15T04:09:24;51.53;;;23.23;;
15635;SDS011;7917;50.818;6.972;2023-02-15T04:12:08;56.33;;;25.40;;
15635;SDS011;7917;50.818;6.972;2023-02-15T04:14:35;52.85;;;24.35;;
15635;SDS011;7917;50.818;6.972;2023-02-15T04:17:20;57.97;;;24.52;;
15635;SDS011;7917;50.818;6.972;2023-02-15T04:19:46;51.78;;;25.20;;
15635;SDS011;7917;50.818;6.972;2023-02-15T04:22:32;50.42;;;23.48;;
15635;SDS011;7917;50.818;6.972;2023-02-15T04:25:17;53.80;;;23.95;;
15635;SDS011;7917;50.818;6.972;2023-02-15T04:27:44;57.70;;;24.15;;
15635;SDS011;7917;50.818;6.972;2023-02-15T04:30:13;50.90;;;23.58;;
15635;SDS011;7917;50.818;6.972;2023-02-15T04:32:41;52.90;;;22.92;;
15635;SDS011;7917;50.818;6.972;2023-02-15T04:35:08;48.92;;;22.70;;
15635;SDS011;7917;50.818;6.972;2023-02-15T04:37:35;47.80;;;22.65;;
15635;SDS011;7917;50.818;6.972;2023-02-15T04:40:02;51.03;;;23.48;;
15635;SDS011;7917;50.818;6.972;2023-02-15T04:42:30;56.30;;;23.23;;
15635;SDS011;7917;50.818;6.972;2023-02-15T04:44:56;50.83;;;22.42;;
15635;SDS011;7917;50.818;6.972;2023-02-15T04:47:23;56.22;;;23.67;;
15635;SDS011;7917;50.818;6.972;2023-02-15T04:49:50;54.72;;;22.73;;
15635;SDS011;7917;50.818;6.972;2023-02-15T04:52:16;51.92;;;22.63;;
15635;SDS011;7917;50.818;6.972;2023-02-15T04:54:44;58.38;;;23.90;;
15635;SDS011;7917;50.818;6.972;2023-02-15T04:57:10;46.90;;;22.40;;
15635;SDS011;7917;50.818;6.972;2023-02-15T04:59:37;54.45;;;24.40;;
15635;SDS011;7917;50.818;6.972;2023-02-15T05:02:04;53.03;;;23.98;;
15635;SDS011;7917;50.818;6.972;2023-02-15T05:04:31;50.03;;;23.83;;
15635;SDS011;7917;50.818;6.972;2023-02-15T05:06:58;47.88;;;23.67;;
15635;SDS011;7917;50.818;6.972;2023-02-15T05:09:24;47.15;;;22.48;;
15635;SDS011;7917;50.818;6.972;2023-02-15T05:11:54;47.33;;;21.92;;
15635;SDS011;7917;50.818;6.972;2023-02-15T05:14:21;51.38;;;22.42;;
15635;SDS011;7917;50.818;6.972;2023-02-15T05:16:47;53.97;;;22.85;;
15635;SDS011;7917;50.818;6.972;2023-02-15T05:19:14;47.28;;;22.60;;
15635;SDS011;7917;50.818;6.972;2023-02-15T05:21:41;52.38;;;22.55;;
15635;SDS011;7917;50.818;6.972;2023-02-15T05:24:07;48.83;;;21.08;;
15635;SDS011;7917;50.818;6.972;2023-02-15T05:26:48;51.00;;;22.67;;
15635;SDS011;7917;50.818;6.972;2023-02-15T05:29:34;49.88;;;22.55;;
15635;SDS011;7917;50.818;6.972;2023-02-15T05:32:00;56.20;;;23.20;;
15635;SDS011;7917;50.818;6.972;2023-02-15T05:34:29;50.30;;;21.73;;
15635;SDS011;7917;50.818;6.972;2023-02-15T05:36:56;51.65;;;23.60;;
15635;SDS011;7917;50.818;6.972;2023-02-15T05:39:22;52.25;;;22.42;;
15635;SDS011;7917;50.818;6.972;2023-02-15T05:41:49;52.85;;;21.23;;
15635;SDS011;7917;50.818;6.972;2023-02-15T05:44:20;50.22;;;22.60;;
15635;SDS011;7917;50.818;6.972;2023-02-15T05:46:55;58.85;;;23.95;;
15635;SDS011;7917;50.818;6.972;2023-02-15T05:49:22;48.15;;;22.00;;
15635;SDS011;7917;50.818;6.972;2023-02-15T05:51:48;52.42;;;22.92;;
15635;SDS011;7917;50.818;6.972;2023-02-15T05:54:15;51.72;;;22.98;;
15635;SDS011;7917;50.818;6.972;2023-02-15T05:56:42;47.72;;;21.85;;
15635;SDS011;7917;50.818;6.972;2023-02-15T05:59:09;54.60;;;23.17;;
15635;SDS011;7917;50.818;6.972;2023-02-15T06:01:35;51.20;;;22.83;;
15635;SDS011;7917;50.818;6.972;2023-02-15T06:04:03;43.90;;;21.35;;
15635;SDS011;7917;50.818;6.972;2023-02-15T06:06:30;56.63;;;23.73;;
15635;SDS011;7917;50.818;6.972;2023-02-15T06:08:56;50.22;;;23.00;;
15635;SDS011;7917;50.818;6.972;2023-02-15T06:11:24;51.47;;;22.90;;
15635;SDS011;7917;50.818;6.972;2023-02-15T06:13:51;51.63;;;22.00;;
15635;SDS011;7917;50.818;6.972;2023-02-15T06:16:18;49.38;;;22.38;;
15635;SDS011;7917;50.818;6.972;2023-02-15T06:18:45;52.17;;;22.63;;
15635;SDS011;7917;50.818;6.972;2023-02-15T06:21:12;53.17;;;22.10;;
15635;SDS011;7917;50.818;6.972;2023-02-15T06:23:38;50.75;;;21.13;;
15635;SDS011;7917;50.818;6.972;2023-02-15T06:26:05;52.97;;;22.90;;
15635;SDS011;7917;50.818;6.972;2023-02-15T06:28:32;51.03;;;22.27;;
15635;SDS011;7917;50.818;6.972;2023-02-15T06:30:59;52.28;;;22.70;;
15635;SDS011;7917;50.818;6.972;2023-02-15T06:33:25;54.95;;;23.15;;
15635;SDS011;7917;50.818;6.972;2023-02-15T06:35:52;52.00;;;23.42;;
15635;SDS011;7917;50.818;6.972;2023-02-15T06:38:19;52.58;;;23.73;;
15635;SDS011;7917;50.818;6.972;2023-02-15T06:40:46;48.30;;;20.83;;
15635;SDS011;7917;50.818;6.972;2023-02-15T06:43:12;48.50;;;19.98;;
15635;SDS011;7917;50.818;6.972;2023-02-15T06:45:39;50.30;;;21.15;;
15635;SDS011;7917;50.818;6.972;2023-02-15T06:48:07;52.80;;;22.73;;
15635;SDS011;7917;50.818;6.972;2023-02-15T06:50:33;46.90;;;21.10;;
15635;SDS011;7917;50.818;6.972;2023-02-15T06:53:00;48.08;;;21.75;;
15635;SDS011;7917;50.818;6.972;2023-02-15T06:55:28;50.08;;;21.80;;
15635;SDS011;7917;50.818;6.972;2023-02-15T06:57:55;47.58;;;20.95;;
15635;SDS011;7917;50.818;6.972;2023-02-15T07:00:21;52.92;;;21.45;;
15635;SDS011;7917;50.818;6.972;2023-02-15T07:02:52;59.03;;;22.95;;
15635;SDS011;7917;50.818;6.972;2023-02-15T07:05:20;48.38;;;21.52;;
15635;SDS011;7917;50.818;6.972;2023-02-15T07:07:47;49.90;;;21.63;;
15635;SDS011;7917;50.818;6.972;2023-02-15T07:10:14;49.83;;;21.05;;
15635;SDS011;7917;50.818;6.972;2023-02-15T07:12:44;53.05;;;22.90;;
15635;SDS011;7917;50.818;6.972;2023-02-15T07:15:11;48.78;;;20.65;;
15635;SDS011;7917;50.818;6.972;2023-02-15T07:17:40;53.47;;;22.05;;
15635;SDS011;7917;50.818;6.972;2023-02-15T07:20:07;46.72;;;22.67;;
15635;SDS011;7917;50.818;6.972;2023-02-15T07:22:35;50.00;;;22.75;;
15635;SDS011;7917;50.818;6.972;2023-02-15T07:25:02;53.90;;;21.90;;
15635;SDS011;7917;50.818;6.972;2023-02-15T07:27:30;45.97;;;20.65;;
15635;SDS011;7917;50.818;6.972;2023-02-15T07:29:57;49.42;;;21.70;;
15635;SDS011;7917;50.818;6.972;2023-02-15T07:32:26;56.63;;;21.92;;
15635;SDS011;7917;50.818;6.972;2023-02-15T07:34:55;44.38;;;21.10;;
15635;SDS011;7917;50.818;6.972;2023-02-15T07:37:21;49.78;;;22.02;;
15635;SDS011;7917;50.818;6.972;2023-02-15T07:39:48;48.10;;;20.88;;
15635;SDS011;7917;50.818;6.972;2023-02-15T07:42:15;45.20;;;21.33;;
15635;SDS011;7917;50.818;6.972;2023-02-15T07:44:42;45.85;;;21.33;;
15635;SDS011;7917;50.818;6.972;2023-02-15T07:47:10;42.25;;;20.45;;
15635;SDS011;7917;50.818;6.972;2023-02-15T07:49:37;38.28;;;19.70;;
15635;SDS011;7917;50.818;6.972;2023-02-15T07:52:04;42.85;;;20.48;;
15635;SDS011;7917;50.818;6.972;2023-02-15T07:54:31;40.63;;;19.33;;
15635;SDS011;7917;50.818;6.972;2023-02-15T07:56:58;47.60;;;21.08;;
15635;SDS011;7917;50.818;6.972;2023-02-15T07:59:26;42.78;;;19.80;;
15635;SDS011;7917;50.818;6.972;2023-02-15T08:01:52;43.80;;;21.83;;
15635;SDS011;7917;50.818;6.972;2023-02-15T08:04:22;41.78;;;20.70;;
15635;SDS011;7917;50.818;6.972;2023-02-15T08:06:51;44.53;;;20.50;;
15635;SDS011;7917;50.818;6.972;2023-02-15T08:09:19;46.80;;;21.80;;
15635;SDS011;7917;50.818;6.972;2023-02-15T08:11:46;38.15;;;19.10;;
15635;SDS011;7917;50.818;6.972;2023-02-15T08:14:14;43.53;;;20.55;;
15635;SDS011;7917;50.818;6.972;2023-02-15T08:16:42;40.05;;;20.05;;
15635;SDS011;7917;50.818;6.972;2023-02-15T08:19:10;41.00;;;19.88;;
15635;SDS011;7917;50.818;6.972;2023-02-15T08:21:42;34.75;;;18.92;;
15635;SDS011;7917;50.818;6.972;2023-02-15T08:24:11;36.60;;;19.33;;
15635;SDS011;7917;50.818;6.972;2023-02-15T08:26:39;34.80;;;18.92;;
15635;SDS011;7917;50.818;6.972;2023-02-15T08:29:07;37.63;;;19.45;;
15635;SDS011;7917;50.818;6.972;2023-02-15T08:31:34;34.85;;;17.70;;
15635;SDS011;7917;50.818;6.972;2023-02-15T08:34:02;31.08;;;15.85;;
15635;SDS011;7917;50.818;6.972;2023-02-15T08:36:30;32.22;;;16.23;;
15635;SDS011;7917;50.818;6.972;2023-02-15T08:38:59;29.88;;;16.10;;
15635;SDS011;7917;50.818;6.972;2023-02-15T08:41:27;28.13;;;16.98;;
15635;SDS011;7917;50.818;6.972;2023-02-15T08:43:56;30.92;;;16.02;;
15635;SDS011;7917;50.818;6.972;2023-02-15T08:46:27;31.13;;;16.38;;
15635;SDS011;7917;50.818;6.972;2023-02-15T08:48:55;27.23;;;14.95;;
15635;SDS011;7917;50.818;6.972;2023-02-15T08:51:24;29.08;;;15.35;;
15635;SDS011;7917;50.818;6.972;2023-02-15T08:53:52;31.85;;;15.98;;
15635;SDS011;7917;50.818;6.972;2023-02-15T08:56:22;24.58;;;14.70;;
15635;SDS011;7917;50.818;6.972;2023-02-15T08:58:50;26.13;;;14.13;;
15635;SDS011;7917;50.818;6.972;2023-02-15T09:01:17;26.45;;;14.30;;
15635;SDS011;7917;50.818;6.972;2023-02-15T09:03:46;23.50;;;15.13;;
15635;SDS011;7917;50.818;6.972;2023-02-15T09:06:16;28.38;;;15.23;;
15635;SDS011;7917;50.818;6.972;2023-02-15T09:08:43;26.15;;;14.93;;
15635;SDS011;7917;50.818;6.972;2023-02-15T09:11:10;26.63;;;14.73;;
15635;SDS011;7917;50.818;6.972;2023-02-15T09:13:39;25.67;;;14.02;;
15635;SDS011;7917;50.818;6.972;2023-02-15T09:16:07;26.80;;;15.05;;
15635;SDS011;7917;50.818;6.972;2023-02-15T09:18:35;23.70;;;14.05;;
15635;SDS011;7917;50.818;6.972;2023-02-15T09:21:04;24.77;;;14.48;;
15635;SDS011;7917;50.818;6.972;2023-02-15T09:23:32;27.75;;;15.43;;
15635;SDS011;7917;50.818;6.972;2023-02-15T09:26:01;25.08;;;14.30;;
15635;SDS011;7917;50.818;6.972;2023-02-15T09:28:29;24.05;;;13.68;;
15635;SDS011;7917;50.818;6.972;2023-02-15T09:31:04;21.10;;;13.20;;
15635;SDS011;7917;50.818;6.972;2023-02-15T09:33:35;20.83;;;13.07;;
15635;SDS011;7917;50.818;6.972;2023-02-15T09:36:03;26.20;;;13.75;;
15635;SDS011;7917;50.818;6.972;2023-02-15T09:38:30;23.17;;;14.05;;
15635;SDS011;7917;50.818;6.972;2023-02-15T09:41:00;21.33;;;13.52;;
15635;SDS011;7917;50.818;6.972;2023-02-15T09:43:42;22.98;;;12.85;;
15635;SDS011;7917;50.818;6.972;2023-02-15T09:46:21;22.65;;;14.20;;
15635;SDS011;7917;50.818;6.972;2023-02-15T09:49:10;21.23;;;13.45;;
15635;SDS011;7917;50.818;6.972;2023-02-15T09:51:52;24.00;;;14.50;;
15635;SDS011;7917;50.818;6.972;2023-02-15T09:54:34;22.60;;;13.20;;
15635;SDS011;7917;50.818;6.972;2023-02-15T09:57:14;23.58;;;14.13;;
15635;SDS011;7917;50.818;6.972;2023-02-15T09:59:52;23.30;;;14.45;;
15635;SDS011;7917;50.818;6.972;2023-02-15T10:02:30;23.42;;;13.15;;
15635;SDS011;7917;50.818;6.972;2023-02-15T10:05:14;21.90;;;13.02;;
15635;SDS011;7917;50.818;6.972;2023-02-15T10:07:59;21.77;;;12.93;;
15635;SDS011;7917;50.818;6.972;2023-02-15T10:10:42;19.38;;;12.02;;
15635;SDS011;7917;50.818;6.972;2023-02-15T10:13:18;21.83;;;13.32;;
15635;SDS011;7917;50.818;6.972;2023-02-15T10:16:01;24.40;;;14.25;;
15635;SDS011;7917;50.818;6.972;2023-02-15T10:18:47;24.55;;;14.15;;
15635;SDS011;7917;50.818;6.972;2023-02-15T10:21:20;22.38;;;13.45;;
15635;SDS011;7917;50.818;6.972;2023-02-15T10:24:04;23.02;;;13.93;;
15635;SDS011;7917;50.818;6.972;2023-02-15T10:26:43;22.58;;;13.30;;
15635;SDS011;7917;50.818;6.972;2023-02-15T10:29:13;23.85;;;13.27;;
15635;SDS011;7917;50.818;6.972;2023-02-15T10:31:54;22.20;;;12.93;;
15635;SDS011;7917;50.818;6.972;2023-02-15T10:34:32;21.73;;;13.48;;
15635;SDS011;7917;50.818;6.972;2023-02-15T10:39:59;20.52;;;12.70;;
15635;SDS011;7917;50.818;6.972;2023-02-15T10:42:36;20.90;;;12.45;;
15635;SDS011;7917;50.818;6.972;2023-02-15T10:45:18;22.58;;;14.00;;
15635;SDS011;7917;50.818;6.972;2023-02-15T10:47:55;21.02;;;12.80;;
15635;SDS011;7917;50.818;6.972;2023-02-15T10:50:43;22.05;;;12.95;;
15635;SDS011;7917;50.818;6.972;2023-02-15T10:53:17;22.90;;;12.95;;
15635;SDS011;7917;50.818;6.972;2023-02-15T10:55:57;23.15;;;13.32;;
15635;SDS011;7917;50.818;6.972;2023-02-15T10:58:37;22.20;;;13.13;;
15635;SDS011;7917;50.818;6.972;2023-02-15T11:01:15;20.48;;;13.32;;
15635;SDS011;7917;50.818;6.972;2023-02-15T11:04:04;21.25;;;12.95;;
15635;SDS011;7917;50.818;6.972;2023-02-15T11:06:42;22.52;;;13.48;;
15635;SDS011;7917;50.818;6.972;2023-02-15T11:09:16;21.05;;;13.70;;
15635;SDS011;7917;50.818;6.972;2023-02-15T11:11:48;19.45;;;13.25;;
15635;SDS011;7917;50.818;6.972;2023-02-15T11:14:18;23.10;;;12.85;;
15635;SDS011;7917;50.818;6.972;2023-02-15T11:16:53;23.77;;;13.00;;
15635;SDS011;7917;50.818;6.972;2023-02-15T11:19:26;21.52;;;12.82;;
15635;SDS011;7917;50.818;6.972;2023-02-15T11:21:58;21.13;;;13.10;;
15635;SDS011;7917;50.818;6.972;2023-02-15T11:24:28;19.75;;;13.20;;
15635;SDS011;7917;50.818;6.972;2023-02-15T11:26:57;19.60;;;12.80;;
15635;SDS011;7917;50.818;6.972;2023-02-15T11:29:29;19.95;;;13.02;;
15635;SDS011;7917;50.818;6.972;2023-02-15T11:32:02;19.85;;;13.13;;
15635;SDS011;7917;50.818;6.972;2023-02-15T11:34:40;19.92;;;12.90;;
15635;SDS011;7917;50.818;6.972;2023-02-15T11:37:14;17.98;;;12.43;;
15635;SDS011;7917;50.818;6.972;2023-02-15T11:39:44;19.40;;;12.95;;
15635;SDS011;7917;50.818;6.972;2023-02-15T11:42:18;20.27;;;13.10;;
15635;SDS011;7917;50.818;6.972;2023-02-15T11:44:50;20.75;;;13.48;;
15635;SDS011;7917;50.818;6.972;2023-02-15T11:47:22;17.52;;;12.85;;
15635;SDS011;7917;50.818;6.972;2023-02-15T11:49:49;18.95;;;12.55;;
15635;SDS011;7917;50.818;6.972;2023-02-15T11:52:17;19.00;;;12.95;;
15635;SDS011;7917;50.818;6.972;2023-02-15T11:54:44;19.52;;;12.52;;
15635;SDS011;7917;50.818;6.972;2023-02-15T11:57:16;19.85;;;12.88;;
15635;SDS011;7917;50.818;6.972;2023-02-15T11:59:49;21.05;;;12.90;;
15635;SDS011;7917;50.818;6.972;2023-02-15T12:02:20;22.60;;;14.00;;
15635;SDS011;7917;50.818;6.972;2023-02-15T12:04:49;19.20;;;13.57;;
15635;SDS011;7917;50.818;6.972;2023-02-15T12:07:21;20.75;;;12.70;;
15635;SDS011;7917;50.818;6.972;2023-02-15T12:09:51;19.10;;;12.95;;
15635;SDS011;7917;50.818;6.972;2023-02-15T12:12:23;20.30;;;13.30;;
15635;SDS011;7917;50.818;6.972;2023-02-15T12:14:52;19.13;;;13.52;;
15635;SDS011;7917;50.818;6.972;2023-02-15T12:17:20;18.85;;;12.65;;
15635;SDS011;7917;50.818;6.972;2023-02-15T12:19:49;19.55;;;13.10;;
15635;SDS011;7917;50.818;6.972;2023-02-15T12:22:19;21.30;;;12.82;;
15635;SDS011;7917;50.818;6.972;2023-02-15T12:24:49;18.90;;;12.88;;
15635;SDS011;7917;50.818;6.972;2023-02-15T12:27:19;18.58;;;12.63;;
15635;SDS011;7917;50.818;6.972;2023-02-15T12:29:48;18.70;;;12.80;;
15635;SDS011;7917;50.818;6.972;2023-02-15T12:32:17;18.75;;;13.32;;
15635;SDS011;7917;50.818;6.972;2023-02-15T12:34:48;17.60;;;12.38;;
15635;SDS011;7917;50.818;6.972;2023-02-15T12:37:36;20.17;;;12.77;;
15635;SDS011;7917;50.818;6.972;2023-02-15T12:40:19;18.90;;;13.15;;
15635;SDS011;7917;50.818;6.972;2023-02-15T12:42:51;18.52;;;12.80;;
15635;SDS011;7917;50.818;6.972;2023-02-15T12:45:22;20.42;;;12.93;;
15635;SDS011;7917;50.818;6.972;2023-02-15T12:50:36;16.65;;;11.50;;
15635;SDS011;7917;50.818;6.972;2023-02-15T12:53:07;21.17;;;12.20;;
15635;SDS011;7917;50.818;6.972;2023-02-15T12:55:42;16.85;;;11.93;;
15635;SDS011;7917;50.818;6.972;2023-02-15T12:58:18;16.80;;;11.75;;
15635;SDS011;7917;50.818;6.972;2023-02-15T13:00:48;17.20;;;12.20;;
15635;SDS011;7917;50.818;6.972;2023-02-15T13:03:30;18.30;;;12.43;;
15635;SDS011;7917;50.818;6.972;2023-02-15T13:05:58;18.75;;;12.13;;
15635;SDS011;7917;50.818;6.972;2023-02-15T13:08:28;17.08;;;11.40;;
15635;SDS011;7917;50.818;6.972;2023-02-15T13:10:57;21.10;;;13.25;;
15635;SDS011;7917;50.818;6.972;2023-02-15T13:13:26;20.58;;;11.75;;
15635;SDS011;7917;50.818;6.972;2023-02-15T13:15:55;19.70;;;12.63;;
15635;SDS011;7917;50.818;6.972;2023-02-15T13:18:27;17.40;;;12.25;;
15635;SDS011;7917;50.818;6.972;2023-02-15T13:20:57;16.92;;;11.10;;
15635;SDS011;7917;50.818;6.972;2023-02-15T13:23:31;16.77;;;12.30;;
15635;SDS011;7917;50.818;6.972;2023-02-15T13:25:58;17.08;;;12.18;;
15635;SDS011;7917;50.818;6.972;2023-02-15T13:28:32;18.55;;;12.15;;
15635;SDS011;7917;50.818;6.972;2023-02-15T13:31:08;17.45;;;11.48;;
15635;SDS011;7917;50.818;6.972;2023-02-15T13:33:39;16.77;;;11.68;;
15635;SDS011;7917;50.818;6.972;2023-02-15T13:36:12;17.67;;;11.98;;
15635;SDS011;7917;50.818;6.972;2023-02-15T13:38:50;17.35;;;11.50;;
15635;SDS011;7917;50.818;6.972;2023-02-15T13:41:25;18.42;;;12.18;;
15635;SDS011;7917;50.818;6.972;2023-02-15T13:43:59;21.58;;;11.32;;
15635;SDS011;7917;50.818;6.972;2023-02-15T13:46:43;16.23;;;12.07;;
15635;SDS011;7917;50.818;6.972;2023-02-15T13:49:19;15.95;;;11.10;;
15635;SDS011;7917;50.818;6.972;2023-02-15T13:52:00;16.63;;;10.85;;
15635;SDS011;7917;50.818;6.972;2023-02-15T13:54:44;17.77;;;10.90;;
15635;SDS011;7917;50.818;6.972;2023-02-15T13:57:26;20.25;;;11.98;;
15635;SDS011;7917;50.818;6.972;2023-02-15T14:00:04;24.15;;;10.82;;
15635;SDS011;7917;50.818;6.972;2023-02-15T14:06:16;17.83;;;11.90;;
15635;SDS011;7917;50.818;6.972;2023-02-15T14:08:58;17.02;;;11.15;;
15635;SDS011;7917;50.818;6.972;2023-02-15T14:11:38;16.52;;;11.73;;
15635;SDS011;7917;50.818;6.972;2023-02-15T14:14:23;14.45;;;10.90;;
15635;SDS011;7917;50.818;6.972;2023-02-15T14:17:12;16.45;;;11.13;;
15635;SDS011;7917;50.818;6.972;2023-02-15T14:19:48;15.23;;;10.77;;
15635;SDS011;7917;50.818;6.972;2023-02-15T14:22:22;20.80;;;11.38;;
15635;SDS011;7917;50.818;6.972;2023-02-15T14:24:59;14.05;;;10.57;;
15635;SDS011;7917;50.818;6.972;2023-02-15T14:27:40;15.20;;;10.93;;
15635;SDS011;7917;50.818;6.972;2023-02-15T14:30:30;17.08;;;10.63;;
15635;SDS011;7917;50.818;6.972;2023-02-15T14:33:01;17.80;;;11.05;;
15635;SDS011;7917;50.818;6.972;2023-02-15T14:35:32;16.75;;;11.77;;
15635;SDS011;7917;50.818;6.972;2023-02-15T14:38:00;16.92;;;11.90;;
15635;SDS011;7917;50.818;6.972;2023-02-15T14:40:33;18.20;;;11.43;;
15635;SDS011;7917;50.818;6.972;2023-02-15T14:43:27;17.92;;;10.45;;
15635;SDS011;7917;50.818;6.972;2023-02-15T14:46:06;16.17;;;11.30;;
15635;SDS011;7917;50.818;6.972;2023-02-15T14:48:38;16.20;;;10.48;;
15635;SDS011;7917;50.818;6.972;2023-02-15T14:51:08;15.50;;;11.02;;
15635;SDS011;7917;50.818;6.972;2023-02-15T14:53:36;15.55;;;11.32;;
15635;SDS011;7917;50.818;6.972;2023-02-15T14:56:05;16.50;;;10.88;;
15635;SDS011;7917;50.818;6.972;2023-02-15T15:01:51;17.08;;;11.52;;
15635;SDS011;7917;50.818;6.972;2023-02-15T15:04:23;17.67;;;11.75;;
15635;SDS011;7917;50.818;6.972;2023-02-15T15:06:57;19.30;;;11.95;;
15635;SDS011;7917;50.818;6.972;2023-02-15T15:09:35;16.95;;;11.93;;
15635;SDS011;7917;50.818;6.972;2023-02-15T15:12:35;18.45;;;11.25;;
15635;SDS011;7917;50.818;6.972;2023-02-15T15:15:05;17.25;;;11.82;;
15635;SDS011;7917;50.818;6.972;2023-02-15T15:20:41;15.65;;;11.00;;
15635;SDS011;7917;50.818;6.972;2023-02-15T15:29:02;19.45;;;11.45;;
15635;SDS011;7917;50.818;6.972;2023-02-15T15:31:36;17.98;;;10.63;;
15635;SDS011;7917;50.818;6.972;2023-02-15T15:34:19;17.05;;;10.38;;
15635;SDS011;7917;50.818;6.972;2023-02-15T15:46:13;21.58;;;13.27;;